Time;durP1;ratioP1;P1;durP2;ratioP2;P2;SDS_P1;SDS_P2;PMS_P1;PMS_P2;Temp;Humidity;BMP_temperature;BMP_pressure;BME280_temperature;BME280_humidity;BME280_pressure;Samples;Min_cycle;Max_cycle;Signal;HPM_P1;HPM_P2
2023/04/23 00:00:29;;;;;;;31.65;21.67;;;13.20;99.90;;;;;;5061354;28;20044;-72
2023/04/23 00:02:57;;;;;;;29.00;21.30;;;13.10;99.90;;;;;;5060166;28;20036;-73
2023/04/23 00:05:26;;;;;;;33.33;22.13;;;13.10;99.90;;;;;;5061269;28;20029;-69
2023/04/23 00:07:53;;;;;;;32.78;22.90;;;13.10;99.90;;;;;;5061479;28;20044;-71
2023/04/23 00:10:19;;;;;;;33.97;23.95;;;13.00;99.90;;;;;;5058996;28;20745;-70
2023/04/23 00:12:45;;;;;;;34.72;23.55;;;12.90;99.90;;;;;;5061153;28;20406;-68
2023/04/23 00:15:12;;;;;;;33.28;22.88;;;12.80;99.90;;;;;;5059268;28;20047;-71
2023/04/23 00:17:37;;;;;;;36.25;24.38;;;12.80;99.90;;;;;;5062345;28;20048;-72
2023/04/23 00:20:05;;;;;;;34.05;23.75;;;12.70;99.90;;;;;;5064696;28;20033;-74
2023/04/23 00:22:30;;;;;;;35.28;24.13;;;12.70;99.90;;;;;;5063232;28;20035;-74
2023/04/23 00:24:56;;;;;;;39.38;26.77;;;12.60;99.90;;;;;;5064521;28;20049;-71
2023/04/23 00:27:22;;;;;;;41.92;27.85;;;12.60;99.90;;;;;;5064811;28;20048;-73
2023/04/23 00:29:47;;;;;;;45.63;29.88;;;12.60;99.90;;;;;;5064478;28;20021;-72
2023/04/23 00:32:13;;;;;;;42.58;29.13;;;12.50;99.90;;;;;;5063019;28;20048;-72
2023/04/23 00:34:39;;;;;;;47.20;31.70;;;12.40;99.90;;;;;;5063124;28;20032;-69
2023/04/23 00:37:06;;;;;;;48.58;31.50;;;12.40;99.90;;;;;;5064357;28;20029;-74
2023/04/23 00:39:32;;;;;;;51.05;33.60;;;12.30;99.90;;;;;;5063113;28;20021;-73
2023/04/23 00:42:00;;;;;;;55.70;35.00;;;12.30;99.90;;;;;;5064413;28;20028;-72
2023/04/23 00:44:26;;;;;;;53.65;34.90;;;12.20;99.90;;;;;;5063707;28;20085;-71
2023/04/23 00:46:53;;;;;;;56.45;36.72;;;12.20;99.90;;;;;;5064409;28;20024;-72
2023/04/23 00:49:20;;;;;;;62.40;36.70;;;12.10;99.90;;;;;;5064301;28;20482;-71
2023/04/23 00:51:46;;;;;;;60.00;36.75;;;12.10;99.90;;;;;;5063820;28;20037;-71
2023/04/23 00:54:13;;;;;;;59.47;36.42;;;12.10;99.90;;;;;;5063890;28;20029;-72
2023/04/23 00:56:38;;;;;;;58.63;36.72;;;12.00;99.90;;;;;;5062688;28;20367;-73
2023/04/23 00:59:04;;;;;;;63.40;38.00;;;12.00;99.90;;;;;;5062811;28;20088;-73
2023/04/23 01:01:32;;;;;;;61.95;37.88;;;12.00;99.90;;;;;;5062650;28;20032;-72
2023/04/23 01:03:58;;;;;;;58.85;37.40;;;12.00;99.90;;;;;;5063950;28;20021;-73
2023/04/23 01:06:24;;;;;;;63.38;38.40;;;11.90;99.90;;;;;;5062626;28;20474;-72
2023/04/23 01:08:50;;;;;;;61.65;36.72;;;11.90;99.90;;;;;;5063690;28;20047;-72
2023/04/23 01:11:16;;;;;;;61.38;38.22;;;11.90;99.90;;;;;;5062263;28;20501;-72
2023/04/23 01:13:42;;;;;;;62.47;38.03;;;11.80;99.90;;;;;;5063747;28;20029;-71
2023/04/23 01:16:08;;;;;;;66.38;38.78;;;11.80;99.90;;;;;;5063839;28;20131;-72
2023/04/23 01:18:34;;;;;;;69.72;40.15;;;11.80;99.90;;;;;;5062146;28;20064;-71
2023/04/23 01:21:00;;;;;;;70.55;39.38;;;11.80;99.90;;;;;;5063042;28;20024;-75
2023/04/23 01:23:27;;;;;;;63.95;38.25;;;11.70;99.90;;;;;;5062008;28;20040;-70
2023/04/23 01:25:57;;;;;;;62.05;37.13;;;11.70;99.90;;;;;;5063030;28;20027;-71
2023/04/23 01:28:22;;;;;;;64.80;37.63;;;11.70;99.90;;;;;;5062924;28;20021;-71
2023/04/23 01:30:49;;;;;;;67.35;39.35;;;11.70;99.90;;;;;;5063438;28;20105;-71
2023/04/23 01:33:16;;;;;;;71.63;39.88;;;11.60;99.90;;;;;;5063035;28;20017;-71
2023/04/23 01:35:42;;;;;;;69.97;40.28;;;11.60;99.90;;;;;;5063497;28;20029;-71
2023/04/23 01:38:10;;;;;;;70.20;39.55;;;11.60;99.90;;;;;;5061265;28;20029;-71
2023/04/23 01:40:36;;;;;;;76.82;41.17;;;11.60;99.90;;;;;;5062981;28;20090;-71
2023/04/23 01:43:03;;;;;;;73.40;42.83;;;11.60;99.90;;;;;;5063241;28;20017;-70
2023/04/23 01:45:30;;;;;;;77.18;42.88;;;11.50;99.90;;;;;;5062245;28;20101;-71
2023/04/23 01:47:56;;;;;;;79.93;44.47;;;11.50;99.90;;;;;;5063228;28;20051;-70
2023/04/23 01:50:23;;;;;;;81.70;45.00;;;11.50;99.90;;;;;;5062497;28;20120;-71
2023/04/23 01:52:49;;;;;;;80.65;46.65;;;11.50;99.90;;;;;;5061664;28;20029;-71
2023/04/23 01:55:17;;;;;;;82.35;46.33;;;11.50;99.90;;;;;;5062453;28;20017;-71
2023/04/23 01:57:44;;;;;;;81.40;46.38;;;11.50;99.90;;;;;;5062372;28;20013;-71
2023/04/23 02:00:11;;;;;;;80.47;45.58;;;11.50;99.90;;;;;;5062294;28;20474;-71
2023/04/23 02:02:39;;;;;;;87.78;47.42;;;11.50;99.90;;;;;;5061578;28;20025;-73
2023/04/23 02:05:18;;;;;;;84.57;46.22;;;11.40;99.90;;;;;;5062584;28;20017;-73
2023/04/23 02:07:45;;;;;;;81.95;44.83;;;11.30;99.90;;;;;;5060803;28;20073;-70
2023/04/23 02:10:12;;;;;;;83.72;46.53;;;11.20;99.90;;;;;;5062684;28;20120;-71
2023/04/23 02:12:38;;;;;;;83.25;46.75;;;11.20;99.90;;;;;;5061872;28;20468;-73
2023/04/23 02:15:06;;;;;;;79.72;44.30;;;11.20;99.90;;;;;;5062636;28;20083;-72
2023/04/23 02:17:31;;;;;;;80.70;43.60;;;11.10;99.90;;;;;;5062173;28;20025;-72
2023/04/23 02:19:57;;;;;;;76.43;42.22;;;11.10;99.90;;;;;;5062550;28;20043;-71
2023/04/23 02:22:24;;;;;;;77.00;43.35;;;11.10;99.90;;;;;;5062496;28;20033;-69
2023/04/23 02:24:53;;;;;;;79.53;42.17;;;11.00;99.90;;;;;;5062430;28;20013;-69
2023/04/23 02:27:20;;;;;;;80.57;43.88;;;11.00;99.90;;;;;;5062283;28;20025;-70
2023/04/23 02:29:47;;;;;;;75.95;40.85;;;10.90;99.90;;;;;;5061935;28;20881;-71
2023/04/23 02:32:12;;;;;;;76.50;42.60;;;10.90;99.90;;;;;;5062096;28;20482;-73
2023/04/23 02:34:38;;;;;;;70.57;39.15;;;10.90;99.90;;;;;;5062254;28;20032;-70
2023/04/23 02:37:04;;;;;;;74.05;40.28;;;10.90;99.90;;;;;;5062181;28;20025;-71
2023/04/23 02:39:30;;;;;;;72.30;39.17;;;10.90;99.90;;;;;;5062022;28;20046;-71
2023/04/23 02:41:57;;;;;;;71.65;39.38;;;10.80;99.90;;;;;;5060287;28;20032;-73
2023/04/23 02:44:26;;;;;;;72.07;40.72;;;10.80;99.90;;;;;;5061894;28;20107;-72
2023/04/23 02:46:52;;;;;;;71.97;40.30;;;10.70;99.90;;;;;;5062258;28;20017;-71
2023/04/23 02:49:19;;;;;;;73.55;38.85;;;10.70;99.90;;;;;;5062121;28;20048;-70
2023/04/23 02:51:45;;;;;;;69.43;38.97;;;10.70;99.90;;;;;;5061989;28;20072;-72
2023/04/23 02:54:12;;;;;;;74.85;38.80;;;10.80;99.90;;;;;;5061428;28;20029;-71
2023/04/23 02:56:38;;;;;;;72.07;39.50;;;10.70;99.90;;;;;;5062038;28;20025;-72
2023/04/23 02:59:05;;;;;;;65.78;36.35;;;10.70;99.90;;;;;;5061937;28;20100;-70
2023/04/23 03:01:32;;;;;;;64.88;35.55;;;10.70;99.90;;;;;;5062233;28;20029;-71
2023/04/23 03:03:59;;;;;;;68.57;36.25;;;10.60;99.90;;;;;;5060827;28;20056;-70
2023/04/23 03:06:24;;;;;;;64.00;35.63;;;10.50;99.90;;;;;;5060729;28;20029;-69
2023/04/23 03:08:50;;;;;;;61.63;34.38;;;10.50;99.90;;;;;;5060453;28;20025;-71
2023/04/23 03:11:15;;;;;;;61.65;34.58;;;10.50;99.90;;;;;;5060546;28;20584;-70
2023/04/23 03:13:41;;;;;;;62.47;33.67;;;10.40;99.90;;;;;;5061746;28;20033;-70
2023/04/23 03:16:07;;;;;;;56.25;32.55;;;10.40;99.90;;;;;;5061110;28;20454;-69
2023/04/23 03:18:33;;;;;;;61.85;34.58;;;10.40;99.90;;;;;;5061619;28;20097;-72
2023/04/23 03:20:58;;;;;;;59.80;33.55;;;10.40;99.90;;;;;;5061368;28;20096;-70
2023/04/23 03:23:24;;;;;;;62.97;34.20;;;10.40;99.90;;;;;;5061579;28;20121;-71
2023/04/23 03:25:49;;;;;;;66.35;35.42;;;10.40;99.90;;;;;;5061799;28;20032;-71
2023/04/23 03:28:15;;;;;;;61.30;34.58;;;10.30;99.90;;;;;;5059718;28;20041;-70
2023/04/23 03:30:41;;;;;;;66.75;35.88;;;10.30;99.90;;;;;;5061261;28;20033;-70
2023/04/23 03:33:06;;;;;;;69.47;35.47;;;10.30;99.90;;;;;;5060950;28;20025;-70
2023/04/23 03:35:32;;;;;;;73.18;35.78;;;10.30;99.90;;;;;;5061794;28;20033;-70
2023/04/23 03:37:58;;;;;;;69.35;36.33;;;10.30;99.90;;;;;;5059638;28;20041;-70
2023/04/23 03:40:23;;;;;;;70.25;36.45;;;10.30;99.90;;;;;;5061824;28;20033;-69
2023/04/23 03:42:49;;;;;;;64.63;36.72;;;10.40;99.90;;;;;;5061149;28;20394;-69
2023/04/23 03:45:15;;;;;;;72.35;38.17;;;10.40;99.90;;;;;;5061315;28;20048;-69
2023/04/23 03:47:41;;;;;;;74.18;36.80;;;10.40;99.90;;;;;;5060912;28;20035;-70
2023/04/23 03:50:08;;;;;;;76.22;37.35;;;10.40;99.90;;;;;;5060785;28;20045;-70
2023/04/23 03:52:34;;;;;;;68.05;36.97;;;10.40;99.90;;;;;;5064204;28;20041;-70
2023/04/23 03:55:00;;;;;;;74.47;36.03;;;10.50;99.90;;;;;;5064944;28;20052;-71
2023/04/23 03:57:26;;;;;;;72.38;36.42;;;10.50;99.90;;;;;;5064128;28;20032;-71
2023/04/23 03:59:52;;;;;;;69.53;36.35;;;10.40;99.90;;;;;;5065043;28;20037;-70
2023/04/23 04:02:18;;;;;;;63.95;33.67;;;10.40;99.90;;;;;;5063914;28;20059;-70
2023/04/23 04:04:44;;;;;;;68.78;35.20;;;10.40;99.90;;;;;;5065210;28;20067;-69
2023/04/23 04:07:11;;;;;;;62.03;33.42;;;10.40;99.90;;;;;;5064515;28;20044;-69
2023/04/23 04:09:38;;;;;;;70.45;33.88;;;10.40;99.90;;;;;;5064194;28;20046;-70
2023/04/23 04:12:04;;;;;;;67.97;33.30;;;10.40;99.90;;;;;;5064567;28;20033;-72
2023/04/23 04:14:30;;;;;;;61.72;32.20;;;10.30;99.90;;;;;;5061200;28;20017;-70
2023/04/23 04:16:56;;;;;;;60.60;30.17;;;10.30;99.90;;;;;;5063763;28;20120;-72
2023/04/23 04:19:22;;;;;;;57.70;32.38;;;10.30;99.90;;;;;;5064504;28;20071;-72
2023/04/23 04:21:48;;;;;;;55.97;30.38;;;10.30;99.90;;;;;;5064635;28;20040;-70
2023/04/23 04:24:13;;;;;;;57.60;28.85;;;10.30;99.90;;;;;;5062097;28;20025;-71
2023/04/23 04:26:40;;;;;;;61.17;30.73;;;10.40;99.90;;;;;;5063352;28;20025;-71
2023/04/23 04:29:05;;;;;;;55.63;30.40;;;10.40;99.90;;;;;;5061357;28;20481;-70
2023/04/23 04:31:31;;;;;;;57.88;30.63;;;10.40;99.90;;;;;;5064449;28;20044;-70
2023/04/23 04:33:57;;;;;;;56.15;30.83;;;10.40;99.90;;;;;;5063392;28;20028;-69
2023/04/23 04:36:25;;;;;;;60.65;32.30;;;10.40;99.90;;;;;;5064307;28;20028;-68
2023/04/23 04:38:54;;;;;;;62.85;30.73;;;10.40;99.90;;;;;;5059664;28;20028;-71
2023/04/23 04:41:21;;;;;;;56.53;31.55;;;10.40;99.90;;;;;;5063829;28;20416;-70
2023/04/23 04:43:47;;;;;;;52.90;30.50;;;10.30;99.90;;;;;;5064315;28;20083;-70
2023/04/23 04:46:13;;;;;;;64.60;32.78;;;10.20;99.90;;;;;;5059240;28;20049;-70
2023/04/23 04:48:38;;;;;;;60.00;31.27;;;10.20;99.90;;;;;;5057860;28;20068;-69
2023/04/23 04:51:04;;;;;;;59.88;30.42;;;10.20;99.90;;;;;;5060991;28;20055;-70
2023/04/23 04:53:30;;;;;;;61.67;32.15;;;10.20;99.90;;;;;;5062562;28;20028;-69
2023/04/23 04:55:56;;;;;;;60.35;30.85;;;10.20;99.90;;;;;;5063897;28;20193;-68
2023/04/23 04:58:22;;;;;;;55.30;29.98;;;10.20;99.90;;;;;;5063249;28;20040;-68
2023/04/23 05:00:50;;;;;;;62.72;31.95;;;10.20;99.90;;;;;;5063908;28;20029;-68
2023/04/23 05:03:19;;;;;;;57.85;31.52;;;10.20;99.90;;;;;;5063066;28;20024;-69
2023/04/23 05:05:47;;;;;;;54.70;29.35;;;10.20;99.90;;;;;;5063642;28;20024;-68
2023/04/23 05:08:15;;;;;;;57.05;29.95;;;10.20;99.90;;;;;;5063211;28;20032;-69
2023/04/23 05:10:41;;;;;;;61.05;33.00;;;10.30;99.90;;;;;;5062073;28;20039;-68
2023/04/23 05:13:07;;;;;;;56.28;31.42;;;10.30;99.90;;;;;;5063695;28;20017;-69
2023/04/23 05:15:32;;;;;;;62.40;32.83;;;10.30;99.90;;;;;;5063748;28;20025;-69
2023/04/23 05:17:58;;;;;;;61.10;33.33;;;10.30;99.90;;;;;;5063448;28;20017;-69
2023/04/23 05:20:24;;;;;;;58.15;32.22;;;10.20;99.90;;;;;;5062860;28;20029;-69
2023/04/23 05:22:49;;;;;;;66.82;33.55;;;10.30;99.90;;;;;;5061858;28;20151;-68
2023/04/23 05:25:15;;;;;;;57.25;30.60;;;10.30;99.90;;;;;;5062104;28;20021;-68
2023/04/23 05:27:41;;;;;;;59.22;31.45;;;10.30;99.90;;;;;;5062895;28;20024;-69
2023/04/23 05:30:08;;;;;;;55.40;31.30;;;10.30;99.90;;;;;;5063458;28;20021;-69
2023/04/23 05:32:34;;;;;;;56.38;31.30;;;10.30;99.90;;;;;;5061486;28;20029;-68
2023/04/23 05:35:02;;;;;;;58.40;30.38;;;10.30;99.90;;;;;;5057748;28;20040;-70
2023/04/23 05:37:28;;;;;;;56.75;31.75;;;10.30;99.90;;;;;;5059667;28;20084;-69
2023/04/23 05:39:54;;;;;;;56.05;31.50;;;10.30;99.90;;;;;;5059663;28;20485;-68
2023/04/23 05:42:20;;;;;;;57.35;32.00;;;10.30;99.90;;;;;;5062571;28;20116;-68
2023/04/23 05:44:46;;;;;;;61.63;31.80;;;10.20;99.90;;;;;;5062741;28;20104;-68
2023/04/23 05:47:12;;;;;;;61.80;30.80;;;10.20;99.90;;;;;;5059533;28;20044;-68
2023/04/23 05:49:38;;;;;;;55.42;31.92;;;10.30;99.90;;;;;;5062188;28;20076;-68
2023/04/23 05:52:04;;;;;;;57.08;31.70;;;10.30;99.90;;;;;;5060842;28;20061;-68
2023/04/23 05:54:29;;;;;;;56.97;32.00;;;10.40;99.90;;;;;;5061496;28;20111;-69
2023/04/23 05:56:55;;;;;;;55.00;31.42;;;10.40;99.90;;;;;;5063004;28;20397;-68
2023/04/23 05:59:21;;;;;;;54.95;30.20;;;10.50;99.90;;;;;;5061495;28;20032;-68
2023/04/23 06:01:47;;;;;;;54.88;31.33;;;10.50;99.90;;;;;;5061072;28;20032;-68
2023/04/23 06:04:14;;;;;;;61.60;31.63;;;10.50;99.90;;;;;;5059887;28;20021;-67
2023/04/23 06:06:41;;;;;;;57.55;32.92;;;10.50;99.90;;;;;;5061657;28;20029;-69
2023/04/23 06:09:06;;;;;;;51.28;29.40;;;10.50;99.90;;;;;;5060321;28;20852;-68
2023/04/23 06:11:34;;;;;;;58.90;32.85;;;10.50;99.90;;;;;;5061949;28;20033;-69
2023/04/23 06:14:03;;;;;;;58.20;33.33;;;10.50;99.90;;;;;;5062042;28;20059;-69
2023/04/23 06:16:29;;;;;;;56.50;31.13;;;10.60;99.90;;;;;;5061331;28;20094;-69
2023/04/23 06:18:55;;;;;;;62.33;33.45;;;10.50;99.90;;;;;;5062606;28;20048;-68
2023/04/23 06:21:24;;;;;;;62.45;34.55;;;10.50;99.90;;;;;;5062433;28;20460;-69
2023/04/23 06:23:50;;;;;;;58.45;31.08;;;10.60;99.90;;;;;;5061313;28;20031;-70
2023/04/23 06:26:16;;;;;;;57.15;32.83;;;10.50;99.90;;;;;;5062279;28;20021;-68
2023/04/23 06:28:43;;;;;;;56.78;32.03;;;10.50;99.90;;;;;;5062172;28;20029;-70
2023/04/23 06:31:09;;;;;;;55.80;31.70;;;10.60;99.90;;;;;;5062315;28;20061;-67
2023/04/23 06:33:36;;;;;;;54.22;31.23;;;10.50;99.90;;;;;;5061914;28;20021;-68
2023/04/23 06:36:03;;;;;;;62.80;32.17;;;10.50;99.90;;;;;;5061069;28;20029;-68
2023/04/23 06:38:29;;;;;;;58.25;32.05;;;10.50;99.90;;;;;;5059295;28;20478;-70
2023/04/23 06:40:55;;;;;;;61.83;31.67;;;10.50;99.90;;;;;;5059820;28;20029;-69
2023/04/23 06:43:20;;;;;;;62.10;34.47;;;10.50;99.90;;;;;;5060536;28;20078;-68
2023/04/23 06:45:46;;;;;;;64.20;34.80;;;10.50;99.90;;;;;;5060997;28;20114;-71
2023/04/23 06:48:12;;;;;;;65.82;35.85;;;10.50;99.90;;;;;;5061233;28;20113;-69
2023/04/23 06:50:38;;;;;;;74.50;39.35;;;10.40;99.90;;;;;;5060822;28;20025;-69
2023/04/23 06:53:04;;;;;;;75.45;39.00;;;10.40;99.90;;;;;;5061762;28;20017;-69
2023/04/23 06:55:30;;;;;;;76.22;38.90;;;10.40;99.90;;;;;;5061436;28;20062;-70
2023/04/23 06:57:55;;;;;;;78.93;41.22;;;10.50;99.90;;;;;;5056466;28;20108;-68
2023/04/23 07:00:22;;;;;;;83.80;43.25;;;10.50;99.90;;;;;;5059347;28;20053;-70
2023/04/23 07:02:47;;;;;;;73.07;40.10;;;10.50;99.90;;;;;;5059195;28;20064;-69
2023/04/23 07:05:14;;;;;;;71.25;38.80;;;10.60;99.90;;;;;;5061603;28;20033;-69
2023/04/23 07:07:41;;;;;;;68.60;37.03;;;10.70;99.90;;;;;;5061731;28;20084;-69
2023/04/23 07:10:08;;;;;;;66.15;37.13;;;10.80;99.90;;;;;;5061711;28;20021;-69
2023/04/23 07:12:35;;;;;;;56.60;31.83;;;10.80;99.90;;;;;;5061372;28;20471;-71
2023/04/23 07:15:01;;;;;;;59.15;30.65;;;10.80;99.90;;;;;;5061921;28;20505;-69
2023/04/23 07:17:26;;;;;;;58.28;32.67;;;10.70;99.90;;;;;;5061928;28;20029;-69
2023/04/23 07:19:52;;;;;;;56.42;29.45;;;10.70;99.90;;;;;;5057521;28;20100;-69
2023/04/23 07:22:17;;;;;;;55.63;29.98;;;10.80;99.90;;;;;;5060390;28;20037;-69
2023/04/23 07:24:43;;;;;;;56.72;31.45;;;10.90;99.90;;;;;;5060754;28;20501;-70
2023/04/23 07:27:09;;;;;;;60.03;31.15;;;10.80;99.90;;;;;;5061538;28;20033;-70
2023/04/23 07:29:36;;;;;;;55.47;30.85;;;10.80;99.90;;;;;;5062034;28;20033;-70
2023/04/23 07:32:02;;;;;;;52.80;29.67;;;10.90;99.90;;;;;;5065026;28;20069;-69
2023/04/23 07:34:27;;;;;;;52.53;31.05;;;11.00;99.90;;;;;;5064319;28;21561;-70
2023/04/23 07:36:55;;;;;;;54.25;30.65;;;11.10;99.90;;;;;;5065231;28;20017;-70
2023/04/23 07:39:20;;;;;;;52.60;29.25;;;11.20;99.90;;;;;;5061282;28;20648;-69
2023/04/23 07:41:46;;;;;;;47.28;26.70;;;11.40;99.90;;;;;;5061821;28;20083;-69
2023/04/23 07:44:12;;;;;;;54.65;27.77;;;11.60;99.90;;;;;;5063992;28;20064;-71
2023/04/23 07:46:37;;;;;;;56.95;30.65;;;11.80;99.90;;;;;;5058497;28;20039;-69
2023/04/23 07:49:03;;;;;;;52.58;29.75;;;11.90;99.90;;;;;;5064081;28;20032;-71
2023/04/23 07:51:30;;;;;;;52.80;28.10;;;12.00;99.90;;;;;;5061523;28;20047;-72
2023/04/23 07:53:57;;;;;;;46.45;28.35;;;12.20;99.90;;;;;;5063534;28;20055;-69
2023/04/23 07:56:23;;;;;;;47.10;27.08;;;12.30;99.90;;;;;;5063732;28;20025;-70
2023/04/23 07:58:49;;;;;;;42.88;25.38;;;12.40;99.90;;;;;;5063685;28;20027;-69
2023/04/23 08:01:15;;;;;;;40.40;24.02;;;12.50;99.90;;;;;;5056128;28;20032;-69
2023/04/23 08:03:42;;;;;;;46.22;27.27;;;12.50;99.90;;;;;;5064256;28;20485;-69
2023/04/23 08:06:10;;;;;;;44.80;26.27;;;12.50;99.90;;;;;;5061445;28;20111;-69
2023/04/23 08:08:36;;;;;;;44.35;25.08;;;12.60;99.90;;;;;;5063732;28;20021;-70
2023/04/23 08:11:02;;;;;;;45.90;26.23;;;12.70;99.90;;;;;;5064943;28;20045;-72
2023/04/23 08:13:28;;;;;;;42.95;25.63;;;12.70;99.90;;;;;;5062436;28;20021;-71
2023/04/23 08:16:04;;;;;;;42.88;25.27;;;12.80;99.90;;;;;;5064032;28;20052;-70
2023/04/23 08:18:29;;;;;;;41.20;25.05;;;12.70;99.90;;;;;;5063082;28;20025;-70
2023/04/23 08:20:56;;;;;;;38.28;22.20;;;12.90;99.90;;;;;;5062999;28;20032;-70
2023/04/23 08:23:21;;;;;;;40.72;23.83;;;13.00;99.90;;;;;;5062985;28;20031;-70
2023/04/23 08:25:47;;;;;;;36.25;20.67;;;13.10;99.90;;;;;;5062812;28;20025;-69
2023/04/23 08:28:13;;;;;;;41.33;23.67;;;13.20;99.90;;;;;;5063666;28;20043;-69
2023/04/23 08:30:38;;;;;;;38.65;23.77;;;13.40;99.90;;;;;;5062754;28;20100;-67
2023/04/23 08:33:04;;;;;;;43.47;25.88;;;13.60;99.90;;;;;;5063953;28;20024;-68
2023/04/23 08:35:29;;;;;;;37.70;23.40;;;13.70;99.90;;;;;;5063279;28;20025;-68
2023/04/23 08:37:55;;;;;;;36.63;21.13;;;13.90;99.90;;;;;;5062507;28;20056;-68
2023/04/23 08:40:21;;;;;;;35.75;22.48;;;14.00;99.90;;;;;;5063318;28;20097;-68
2023/04/23 08:42:56;;;;;;;35.92;23.30;;;14.10;99.90;;;;;;5063812;28;20031;-69
2023/04/23 08:45:23;;;;;;;39.83;23.30;;;14.30;99.90;;;;;;5062065;28;20036;-67
2023/04/23 08:47:49;;;;;;;38.65;23.83;;;14.40;99.90;;;;;;5064242;28;20059;-68
2023/04/23 08:50:17;;;;;;;37.80;23.75;;;14.50;99.90;;;;;;5063732;28;20021;-68
2023/04/23 08:52:53;;;;;;;37.63;22.38;;;14.80;99.90;;;;;;5062607;28;20045;-68
2023/04/23 08:55:20;;;;;;;34.92;22.38;;;15.00;99.90;;;;;;5063123;28;20048;-68
2023/04/23 08:57:46;;;;;;;37.17;22.30;;;15.20;99.90;;;;;;5060344;28;20036;-69
2023/04/23 09:00:14;;;;;;;30.85;19.77;;;15.20;99.90;;;;;;5059342;28;20029;-71
2023/04/23 09:02:42;;;;;;;33.80;20.80;;;15.30;99.90;;;;;;5058515;28;20082;-70
2023/04/23 09:05:08;;;;;;;36.38;22.98;;;15.40;99.90;;;;;;5061754;28;20036;-69
2023/04/23 09:07:35;;;;;;;31.50;21.40;;;15.50;99.90;;;;;;5063764;28;20021;-69
2023/04/23 09:10:02;;;;;;;37.13;23.25;;;15.60;99.90;;;;;;5062077;28;20033;-72
2023/04/23 09:12:27;;;;;;;36.33;22.73;;;15.70;99.90;;;;;;5060245;28;20037;-70
2023/04/23 09:14:53;;;;;;;38.30;23.58;;;15.70;99.90;;;;;;5061555;28;20024;-69
2023/04/23 09:17:21;;;;;;;38.65;23.63;;;15.70;99.90;;;;;;5063448;28;20033;-67
2023/04/23 09:19:49;;;;;;;38.40;23.50;;;15.70;99.90;;;;;;5063102;28;20510;-69
2023/04/23 09:22:36;;;;;;;37.58;21.95;;;15.80;99.90;;;;;;5061617;28;20490;-71
2023/04/23 09:25:04;;;;;;;35.03;22.83;;;15.90;99.90;;;;;;5063136;28;20584;-70
2023/04/23 09:27:30;;;;;;;38.53;23.45;;;15.90;99.90;;;;;;5063002;28;20052;-69
2023/04/23 09:29:56;;;;;;;37.78;24.10;;;16.10;99.90;;;;;;5062245;28;20033;-74
2023/04/23 09:32:31;;;;;;;37.05;24.42;;;16.10;99.90;;;;;;5061533;28;20045;-69
2023/04/23 09:34:57;;;;;;;37.10;22.60;;;16.20;99.90;;;;;;5061371;28;20386;-72
2023/04/23 09:37:25;;;;;;;35.05;22.17;;;16.30;99.90;;;;;;5062977;28;20089;-70
2023/04/23 09:39:52;;;;;;;34.28;22.92;;;16.40;99.90;;;;;;5060012;28;20043;-68
2023/04/23 09:42:23;;;;;;;31.88;21.23;;;16.60;99.90;;;;;;5062801;28;20070;-71
2023/04/23 09:45:06;;;;;;;31.30;20.42;;;16.70;99.90;;;;;;5060688;28;20370;-68
2023/04/23 09:47:38;;;;;;;32.90;21.45;;;16.70;99.90;;;;;;5061406;28;20056;-69
2023/04/23 09:50:06;;;;;;;28.08;17.38;;;16.70;99.90;;;;;;5061823;28;20025;-69
2023/04/23 09:52:32;;;;;;;30.85;18.73;;;16.80;99.90;;;;;;5062220;28;20037;-71
2023/04/23 09:55:04;;;;;;;28.80;18.77;;;16.80;99.90;;;;;;5062363;28;20025;-69
2023/04/23 09:57:39;;;;;;;30.52;20.15;;;17.00;99.90;;;;;;5061456;28;20047;-71
2023/04/23 10:00:17;;;;;;;28.65;19.35;;;17.00;99.90;;;;;;5062327;28;20067;-70
2023/04/23 10:02:50;;;;;;;31.17;18.63;;;17.10;99.90;;;;;;5059255;28;20083;-69
2023/04/23 10:05:21;;;;;;;29.42;20.05;;;17.10;99.90;;;;;;5062493;28;20029;-70
2023/04/23 10:07:50;;;;;;;26.95;18.90;;;17.20;99.90;;;;;;5061851;28;20659;-69
2023/04/23 10:10:17;;;;;;;26.77;18.50;;;17.30;99.90;;;;;;5062366;28;20029;-68
2023/04/23 10:12:44;;;;;;;23.25;16.55;;;17.40;99.90;;;;;;5060844;28;20048;-69
2023/04/23 10:15:11;;;;;;;25.00;17.80;;;17.70;99.90;;;;;;5062216;28;20029;-70
2023/04/23 10:17:37;;;;;;;24.02;16.65;;;17.80;99.90;;;;;;5061962;28;20036;-69
2023/04/23 10:20:04;;;;;;;25.92;16.38;;;17.70;99.90;;;;;;5062524;28;20044;-72
2023/04/23 10:22:32;;;;;;;23.23;15.43;;;17.60;99.90;;;;;;5061152;28;20048;-72
2023/04/23 10:25:00;;;;;;;22.55;15.18;;;17.60;99.90;;;;;;5060424;28;20497;-70
2023/04/23 10:27:28;;;;;;;22.50;15.40;;;17.60;99.90;;;;;;5061843;28;20397;-68
2023/04/23 10:29:57;;;;;;;22.25;15.85;;;17.70;99.90;;;;;;5062268;28;20475;-70
2023/04/23 10:32:24;;;;;;;25.52;15.77;;;17.90;99.90;;;;;;5061905;28;20052;-68
2023/04/23 10:34:50;;;;;;;23.42;15.27;;;18.10;99.90;;;;;;5060247;28;20043;-70
2023/04/23 10:37:18;;;;;;;25.63;16.48;;;18.10;99.90;;;;;;5059023;28;20057;-69
2023/04/23 10:39:46;;;;;;;23.85;16.40;;;18.30;99.90;;;;;;5059615;28;20036;-72
2023/04/23 10:42:12;;;;;;;21.75;14.98;;;18.40;99.90;;;;;;5060659;28;20036;-70
2023/04/23 10:44:41;;;;;;;22.67;16.80;;;18.60;99.90;;;;;;5060253;28;20040;-69
2023/04/23 10:47:11;;;;;;;24.83;16.45;;;18.80;99.90;;;;;;5060532;28;20482;-73
2023/04/23 10:49:37;;;;;;;21.60;15.65;;;18.90;99.90;;;;;;5059161;28;20025;-73
2023/04/23 10:52:17;;;;;;;20.08;15.20;;;19.00;99.90;;;;;;5060228;28;20055;-68
2023/04/23 10:54:48;;;;;;;24.70;15.77;;;19.20;99.90;;;;;;5058786;28;20021;-70
2023/04/23 10:57:14;;;;;;;22.33;15.60;;;19.10;99.90;;;;;;5060543;28;20055;-70
2023/04/23 10:59:50;;;;;;;23.02;16.17;;;19.20;99.90;;;;;;5058778;28;20127;-69
2023/04/23 11:02:16;;;;;;;22.05;15.10;;;19.30;99.90;;;;;;5058456;28;20402;-68
2023/04/23 11:04:53;;;;;;;20.02;15.05;;;19.50;99.90;;;;;;5060269;28;20024;-69
2023/04/23 11:07:19;;;;;;;20.13;14.85;;;19.80;99.90;;;;;;5058868;28;20029;-69
2023/04/23 11:09:48;;;;;;;20.73;14.82;;;20.00;99.90;;;;;;5060028;28;20033;-71
2023/04/23 11:12:23;;;;;;;23.05;15.25;;;20.20;99.90;;;;;;5058066;28;20032;-72
2023/04/23 11:14:50;;;;;;;21.63;15.73;;;20.30;99.90;;;;;;5059807;28;20037;-71
2023/04/23 11:17:23;;;;;;;24.45;17.33;;;20.50;99.90;;;;;;5060026;28;20021;-69
2023/04/23 11:20:09;;;;;;;23.35;17.25;;;20.70;99.90;;;;;;5054760;28;20526;-69
2023/04/23 11:22:36;;;;;;;22.33;17.35;;;20.70;99.90;;;;;;5056943;28;20078;-70
2023/04/23 11:25:04;;;;;;;21.75;17.25;;;20.40;99.90;;;;;;5056334;28;20025;-69
2023/04/23 11:27:31;;;;;;;21.42;14.98;;;20.30;99.90;;;;;;5057750;28;20021;-70
2023/04/23 11:30:00;;;;;;;24.33;16.45;;;20.40;99.90;;;;;;5057727;28;20040;-72
2023/04/23 11:32:26;;;;;;;25.42;17.02;;;20.30;99.90;;;;;;5056659;28;20593;-69
2023/04/23 11:34:52;;;;;;;27.27;18.67;;;20.00;99.90;;;;;;5057089;28;20022;-72
2023/04/23 11:37:18;;;;;;;25.90;18.05;;;19.60;99.90;;;;;;5059309;28;20029;-72
2023/04/23 11:39:46;;;;;;;28.40;18.98;;;19.60;99.90;;;;;;5059964;28;20104;-71
2023/04/23 11:42:13;;;;;;;26.75;19.10;;;19.50;99.90;;;;;;5059252;28;20060;-71
2023/04/23 11:44:40;;;;;;;23.15;17.17;;;19.50;99.90;;;;;;5058385;28;20037;-69
2023/04/23 11:47:11;;;;;;;26.30;18.83;;;19.50;99.90;;;;;;5059075;28;20047;-72
2023/04/23 11:49:41;;;;;;;26.10;17.27;;;19.50;99.90;;;;;;5055308;28;20029;-68
2023/04/23 11:52:07;;;;;;;28.60;17.63;;;19.80;99.90;;;;;;5058859;28;20029;-68
2023/04/23 11:54:36;;;;;;;26.77;16.60;;;20.00;99.90;;;;;;5059944;28;20029;-69
2023/04/23 11:57:03;;;;;;;24.15;16.17;;;19.80;99.90;;;;;;5056890;28;20092;-72
2023/04/23 11:59:30;;;;;;;28.80;19.23;;;19.80;99.90;;;;;;5052339;28;20029;-70
2023/04/23 12:01:58;;;;;;;25.92;18.40;;;19.80;99.90;;;;;;5057257;28;20555;-71
2023/04/23 12:04:26;;;;;;;25.45;18.92;;;19.90;99.90;;;;;;5059758;28;20107;-70
2023/04/23 12:06:54;;;;;;;25.38;18.30;;;19.90;99.90;;;;;;5058648;28;20028;-73
2023/04/23 12:09:25;;;;;;;29.38;19.58;;;19.80;99.90;;;;;;5056594;28;20039;-72
2023/04/23 12:11:50;;;;;;;27.50;17.88;;;19.60;99.90;;;;;;5059415;28;20116;-72
2023/04/23 12:14:19;;;;;;;27.70;17.75;;;19.60;99.90;;;;;;5059805;28;20964;-71
2023/04/23 12:16:46;;;;;;;27.73;17.58;;;19.60;99.90;;;;;;5060893;28;20117;-72
2023/04/23 12:19:14;;;;;;;29.05;18.50;;;19.50;99.90;;;;;;5057026;28;20033;-71
2023/04/23 12:21:59;;;;;;;23.50;16.15;;;19.50;99.90;;;;;;5060022;28;20029;-70
2023/04/23 12:24:50;;;;;;;24.17;16.02;;;20.00;99.90;;;;;;5060339;28;20055;-72
2023/04/23 12:27:19;;;;;;;25.08;16.63;;;20.60;99.90;;;;;;5061775;28;20025;-71